Terminal Aerodrome Forecast
Issued by NWS Knoxville/Tri Cities, TN

Home | Current Version | Previous Version | Text Only | Print | Product List | Glossary On
Versions: 1 2 3 4 5 6 7 8 9 10 11 12 13 14 15 16 17 18 19 20
000
FTUS44 KMRX 060535
TAFTRI
TAF
KTRI 060535Z 0606/0706 08005KT P6SM VCSH FEW045 BKN100
     FM061200 07005KT 5SM -RA BR SCT020 BKN045
     FM061600 08005KT 2SM -RA BR OVC015
     FM062100 27007KT 4SM BR OVC010
     FM070000 27010KT P6SM OVC010=

USA.gov is the U.S. government's official web portal to all federal, state and local government web resources and services.